Koei Maru — JD3326 — position and weather

sailwx.info

Track history (hours):
 
Tides and Currents Weather Stations Pressure Air Temp Water Temp Dewpoint Dewpoint Depression Visibility Wind Speed Wind Dir Waves Ship Positions

Koei Maru

Last reported at 2017-Oct-20 09:56 UTC. Time now 2017-Oct-20 17:44 UTC.
Position N 34°36' E 135°05'.

Length 74 m.

Type: Cargo ship. MMSI: 431003269.

Date/timePositionNaut miles runAvg speedWind from/ knotsBaromVisibWave heightAir tempDewpointWater temp
2017-Oct-20 09:56N 34°36' E 135°05'613.6
2017-Oct-20 09:30N 34°37' E 135°12'4 8.4
2017-Oct-20 09:00N 34°40' E 135°15'2 3.3
2017-Oct-20 08:29N 34°42' E 135°15'0 0.0
2017-Oct-20 07:59N 34°42' E 135°15'0 0.0
2017-Oct-20 07:29N 34°42' E 135°15'0 0.0
2017-Oct-20 06:59N 34°42' E 135°15'0 0.0
2017-Oct-20 06:23N 34°42' E 135°15'0 0.0
2017-Oct-20 05:59N 34°42' E 135°15'0 0.0
2017-Oct-20 05:29N 34°42' E 135°15'0 0.0
2017-Oct-20 04:59N 34°42' E 135°15'0 0.0
2017-Oct-20 04:29N 34°42' E 135°15'0 0.0
2017-Oct-20 03:59N 34°42' E 135°15'0 0.0
2017-Oct-20 03:29N 34°42' E 135°15'0 0.0
2017-Oct-20 02:59N 34°42' E 135°15'0 0.0
2017-Oct-20 02:29N 34°42' E 135°15'0 0.0
2017-Oct-20 01:59N 34°42' E 135°15'0 0.0
2017-Oct-20 01:29N 34°42' E 135°15'0 0.0
2017-Oct-20 00:59N 34°42' E 135°15'0 0.0
2017-Oct-20 00:17N 34°42' E 135°15'0 0.0
2017-Oct-19 23:59N 34°42' E 135°15'0 0.0
2017-Oct-19 23:29N 34°42' E 135°15'0 0.0
2017-Oct-19 22:53N 34°42' E 135°15'0 0.0
2017-Oct-19 22:29N 34°42' E 135°15'0 0.0
2017-Oct-19 21:59N 34°42' E 135°15'0 0.0
2017-Oct-19 21:29N 34°42' E 135°15'0 0.0
2017-Oct-19 20:53N 34°42' E 135°15'0 0.0
2017-Oct-19 20:29N 34°42' E 135°15'0 0.0
2017-Oct-19 19:59N 34°42' E 135°15'0 0.0
2017-Oct-19 19:23N 34°42' E 135°15'0 0.0
2017-Oct-19 18:59N 34°42' E 135°15'0 0.0
2017-Oct-19 18:29N 34°42' E 135°15'0 0.0
2017-Oct-19 17:59N 34°42' E 135°15'0 0.0
2017-Oct-19 17:05N 34°42' E 135°15'0 0.0
2017-Oct-19 16:59N 34°42' E 135°15'0 0.0
2017-Oct-19 16:29N 34°42' E 135°15'0 0.0
2017-Oct-19 15:59N 34°42' E 135°15'0 0.0
2017-Oct-19 15:29N 34°42' E 135°15'0 0.0
2017-Oct-19 14:59N 34°42' E 135°15'0 0.0
2017-Oct-19 14:23N 34°42' E 135°15'0 0.0
2017-Oct-19 13:59N 34°42' E 135°15'0 0.0
2017-Oct-19 13:29N 34°42' E 135°15'0 0.0
2017-Oct-19 12:59N 34°42' E 135°15'0 0.0
2017-Oct-19 12:29N 34°42' E 135°15'1 1.4
2017-Oct-19 12:00N 34°41' E 135°15'4 8.7
2017-Oct-19 11:30N 34°37' E 135°15'510.6
2017-Oct-19 10:59N 34°35' E 135°09'1 0.0
2017-Oct-18 00:48N 34°36' E 135°08'413.3
2017-Oct-18 00:28N 34°37' E 135°13'4 9.0
2017-Oct-17 23:58N 34°41' E 135°15'1 1.5
2017-Oct-17 23:30N 34°42' E 135°15'0 0.0
2017-Oct-17 23:00N 34°42' E 135°15'0 0.0
2017-Oct-17 22:30N 34°42' E 135°15'0 0.0
2017-Oct-17 22:00N 34°42' E 135°15'0 0.0
2017-Oct-17 21:30N 34°42' E 135°15'0 0.0
2017-Oct-17 21:00N 34°42' E 135°15'0 0.0
2017-Oct-17 20:30N 34°42' E 135°15'0 0.0
2017-Oct-17 20:00N 34°42' E 135°15'0 0.0
2017-Oct-17 19:30N 34°42' E 135°15'0 0.0
2017-Oct-17 19:00N 34°42' E 135°15'0 0.0
2017-Oct-17 18:24N 34°42' E 135°15'0 0.0
2017-Oct-17 18:00N 34°42' E 135°15'0 0.0
2017-Oct-17 17:30N 34°42' E 135°15'0 0.0
2017-Oct-17 17:00N 34°42' E 135°15'0 0.0
2017-Oct-17 16:30N 34°42' E 135°15'0 0.0
2017-Oct-17 16:00N 34°42' E 135°15'0 0.0
2017-Oct-17 15:12N 34°42' E 135°15'0 0.0
2017-Oct-17 15:00N 34°42' E 135°15'0 0.0
2017-Oct-17 14:30N 34°42' E 135°15'0 0.0
2017-Oct-17 13:54N 34°42' E 135°15'0 0.0
2017-Oct-17 13:30N 34°42' E 135°15'0 0.0
2017-Oct-17 12:54N 34°42' E 135°15'0 0.0
2017-Oct-17 12:30N 34°42' E 135°15'0 0.0
2017-Oct-17 12:00N 34°42' E 135°15'0 0.0
2017-Oct-17 11:30N 34°42' E 135°15'0 0.0
2017-Oct-17 10:48N 34°42' E 135°15'0 0.0
2017-Oct-17 10:30N 34°42' E 135°15'0 0.0
2017-Oct-17 10:00N 34°42' E 135°15'0 0.0
2017-Oct-17 09:30N 34°42' E 135°15'0 0.0
2017-Oct-17 08:54N 34°42' E 135°15'0 0.0
2017-Oct-17 08:24N 34°42' E 135°15'0 0.0
2017-Oct-17 08:00N 34°42' E 135°15'0 0.0
2017-Oct-17 07:30N 34°42' E 135°15'0 0.0
2017-Oct-17 07:00N 34°42' E 135°15'0 0.0
2017-Oct-17 06:30N 34°42' E 135°15'0 0.0
2017-Oct-17 06:00N 34°42' E 135°15'0 0.0
2017-Oct-17 05:30N 34°42' E 135°15'0 0.0
2017-Oct-17 04:48N 34°42' E 135°15'0 0.0
2017-Oct-17 04:30N 34°42' E 135°15'0 0.0
2017-Oct-17 03:48N 34°42' E 135°15'0 0.0
2017-Oct-17 03:06N 34°42' E 135°15'0 0.0
2017-Oct-17 03:00N 34°42' E 135°15'0 0.5
2017-Oct-17 02:28N 34°42' E 135°15'0 0.5
2017-Oct-17 01:57N 34°42' E 135°15'0 0.0
2017-Oct-17 01:27N 34°42' E 135°15'0 0.0
2017-Oct-17 00:45N 34°42' E 135°15'0 0.0
2017-Oct-17 00:27N 34°42' E 135°15'0 0.0
2017-Oct-16 23:57N 34°42' E 135°15'0 0.0
2017-Oct-16 23:27N 34°42' E 135°15'0 0.0
2017-Oct-16 22:57N 34°42' E 135°15'0 0.0
2017-Oct-16 22:27N 34°42' E 135°15'0 0.3
2017-Oct-16 22:00N 34°42' E 135°15'4 7.6
2017-Oct-16 21:30N 34°38' E 135°15'511.0
2017-Oct-16 21:00N 34°36' E 135°09'5 9.9
2017-Oct-16 20:30N 34°36' E 135°03'0 0.0
2017-Oct-15 16:36N 34°36' E 135°03'111.1
2017-Oct-15 16:28N 34°36' E 135°05'613.0
2017-Oct-15 16:00N 34°37' E 135°12'4 8.0
2017-Oct-15 15:30N 34°41' E 135°15'1 2.1
2017-Oct-15 14:57N 34°42' E 135°15'0 0.0
2017-Oct-15 13:57N 34°42' E 135°15'0 0.0
2017-Oct-15 13:27N 34°42' E 135°15'0 0.0
2017-Oct-15 12:57N 34°42' E 135°15'0 0.0
2017-Oct-15 12:27N 34°42' E 135°15'0 0.0
2017-Oct-15 11:51N 34°42' E 135°15'0 0.0
2017-Oct-15 11:21N 34°42' E 135°15'0 0.0
2017-Oct-15 10:57N 34°42' E 135°15'0 0.0
2017-Oct-15 10:27N 34°42' E 135°15'0 0.0
2017-Oct-15 09:57N 34°42' E 135°15'0 0.0
2017-Oct-15 09:27N 34°42' E 135°15'0 0.0
2017-Oct-15 08:45N 34°42' E 135°15'0 0.0
2017-Oct-15 08:27N 34°42' E 135°15'0 0.0
2017-Oct-15 07:57N 34°42' E 135°15'0 0.0
2017-Oct-15 07:21N 34°42' E 135°15'0 0.0
2017-Oct-15 06:57N 34°42' E 135°15'0 0.0
2017-Oct-15 06:27N 34°42' E 135°15'0 0.0
2017-Oct-15 05:57N 34°42' E 135°15'0 0.0
2017-Oct-15 05:27N 34°42' E 135°15'0 0.0
2017-Oct-15 04:57N 34°42' E 135°15'0 0.0
2017-Oct-15 04:27N 34°42' E 135°15'0 0.0
2017-Oct-15 03:57N 34°42' E 135°15'0 0.0
2017-Oct-15 03:21N 34°42' E 135°15'0 0.0
2017-Oct-15 02:57N 34°42' E 135°15'0 0.0
2017-Oct-15 02:27N 34°42' E 135°15'0 0.0
2017-Oct-15 01:57N 34°42' E 135°15'0 0.0
2017-Oct-15 01:21N 34°42' E 135°15'0 0.0
2017-Oct-15 00:57N 34°42' E 135°15'0 0.0
2017-Oct-15 00:27N 34°42' E 135°15'0 0.0
2017-Oct-14 23:57N 34°42' E 135°15'0 0.0
2017-Oct-14 23:27N 34°42' E 135°15'0 0.0
2017-Oct-14 22:51N 34°42' E 135°15'0 0.0
2017-Oct-14 22:21N 34°42' E 135°15'0 0.0
2017-Oct-14 21:57N 34°42' E 135°15'0 0.0
2017-Oct-14 21:27N 34°42' E 135°15'0 0.0
2017-Oct-14 20:57N 34°42' E 135°15'0 0.0
2017-Oct-14 20:27N 34°42' E 135°15'0 0.0
2017-Oct-14 19:57N 34°42' E 135°15'0 0.0
2017-Oct-14 19:09N 34°42' E 135°15'0 0.0
2017-Oct-14 18:57N 34°42' E 135°15'0 0.0
2017-Oct-14 18:27N 34°42' E 135°15'0 0.0
2017-Oct-14 17:57N 34°42' E 135°15'0 0.0
2017-Oct-14 17:21N 34°42' E 135°15'0 0.0
2017-Oct-14 16:57N 34°42' E 135°15'0 0.0
2017-Oct-14 16:21N 34°42' E 135°15'0 0.0
2017-Oct-14 15:57N 34°42' E 135°15'0 0.0
2017-Oct-14 15:21N 34°42' E 135°15'0 0.0
2017-Oct-14 14:57N 34°42' E 135°15'0 0.0
2017-Oct-14 14:21N 34°42' E 135°15'0 0.0
2017-Oct-14 13:57N 34°42' E 135°15'0 0.0
2017-Oct-14 13:27N 34°42' E 135°15'0 0.0
2017-Oct-14 12:57N 34°42' E 135°15'0 0.0
2017-Oct-14 12:27N 34°42' E 135°15'0 0.0
2017-Oct-14 11:57N 34°42' E 135°15'0 0.0
2017-Oct-14 11:21N 34°42' E 135°15'0 0.0
2017-Oct-14 10:57N 34°42' E 135°15'0 0.0
2017-Oct-14 10:27N 34°42' E 135°15'0 0.0
2017-Oct-14 09:57N 34°42' E 135°15'0 0.0
2017-Oct-14 09:27N 34°42' E 135°15'0 0.0
2017-Oct-14 08:57N 34°42' E 135°15'0 0.0
2017-Oct-14 08:27N 34°42' E 135°15'0 0.0
2017-Oct-14 07:57N 34°42' E 135°15'2 4.0
2017-Oct-14 07:30N 34°40' E 135°15'4 8.4
2017-Oct-14 07:00N 34°37' E 135°12'611.5
2017-Oct-14 06:30N 34°35' E 135°05'3 0.1
2017-Oct-13 05:26N 34°37' E 135°08'613.0
2017-Oct-13 05:00N 34°38' E 135°15'4 7.1
2017-Oct-13 04:25N 34°42' E 135°15'0 0.0
2017-Oct-13 03:55N 34°42' E 135°15'0 0.0
2017-Oct-13 03:25N 34°42' E 135°15'0 0.0
2017-Oct-13 02:55N 34°42' E 135°15'0 0.0
2017-Oct-13 02:19N 34°42' E 135°15'0 0.0
2017-Oct-13 01:55N 34°42' E 135°15'0 0.0
2017-Oct-13 01:25N 34°42' E 135°15'0 0.0
2017-Oct-13 00:55N 34°42' E 135°15'0 0.0
2017-Oct-13 00:25N 34°42' E 135°15'0 0.0
2017-Oct-12 23:55N 34°42' E 135°15'0 0.0
2017-Oct-12 23:25N 34°42' E 135°15'0 0.0
2017-Oct-12 22:49N 34°42' E 135°15'0 0.0
2017-Oct-12 22:25N 34°42' E 135°15'0 0.0
2017-Oct-12 21:55N 34°42' E 135°15'0 0.0
2017-Oct-12 21:25N 34°42' E 135°15'0 0.0
2017-Oct-12 20:55N 34°42' E 135°15'0 0.0
2017-Oct-12 20:25N 34°42' E 135°15'0 0.0
2017-Oct-12 19:49N 34°42' E 135°15'0 0.0
2017-Oct-12 19:07N 34°42' E 135°15'0 0.0
2017-Oct-12 18:55N 34°42' E 135°15'0 0.0
2017-Oct-12 18:19N 34°42' E 135°15'0 0.0
2017-Oct-12 17:49N 34°42' E 135°15'0 0.0
2017-Oct-12 17:25N 34°42' E 135°15'0 0.0
2017-Oct-12 16:55N 34°42' E 135°15'0 0.0
2017-Oct-12 16:25N 34°42' E 135°15'0 0.0
2017-Oct-12 15:55N 34°42' E 135°15'0 0.0
2017-Oct-12 15:13N 34°42' E 135°15'0 0.0
2017-Oct-12 14:55N 34°42' E 135°15'0 0.0
2017-Oct-12 14:25N 34°42' E 135°15'0 0.0
2017-Oct-12 13:55N 34°42' E 135°15'0 0.0
2017-Oct-12 13:25N 34°42' E 135°15'0 0.0
2017-Oct-12 12:55N 34°42' E 135°15'0 0.0
2017-Oct-12 12:25N 34°42' E 135°15'0 0.0
2017-Oct-12 11:55N 34°42' E 135°15'0 0.0
2017-Oct-12 11:19N 34°42' E 135°15'0 0.0
2017-Oct-12 10:55N 34°42' E 135°15'0 0.0
2017-Oct-12 10:25N 34°42' E 135°15'0 0.0
2017-Oct-12 09:49N 34°42' E 135°15'0 0.0
2017-Oct-12 09:19N 34°42' E 135°15'0 0.0
2017-Oct-12 08:55N 34°42' E 135°15'0 0.0
2017-Oct-12 08:25N 34°42' E 135°15'0 0.0
2017-Oct-12 07:49N 34°42' E 135°15'0 0.0
2017-Oct-12 07:25N 34°42' E 135°15'0 0.0
2017-Oct-12 06:49N 34°42' E 135°15'0 0.0
2017-Oct-12 06:13N 34°42' E 135°15'0 0.0
2017-Oct-12 05:55N 34°42' E 135°15'0 0.0
2017-Oct-12 05:07N 34°42' E 135°15'0 0.0
2017-Oct-12 04:55N 34°42' E 135°15'0 0.0
2017-Oct-12 04:19N 34°42' E 135°15'0 0.6
2017-Oct-12 03:57N 34°42' E 135°15'0 0.4
2017-Oct-12 03:23N 34°42' E 135°15'0 0.0
2017-Oct-12 02:59N 34°42' E 135°15'0 0.0
2017-Oct-12 02:29N 34°42' E 135°15'0 0.0
2017-Oct-12 01:59N 34°42' E 135°15'0 0.0
2017-Oct-12 01:29N 34°42' E 135°15'0 0.0
2017-Oct-12 00:59N 34°42' E 135°15'0 0.0
2017-Oct-12 00:29N 34°42' E 135°15'0 0.0
2017-Oct-11 23:59N 34°42' E 135°15'0 0.0
2017-Oct-11 23:29N 34°42' E 135°15'0 0.1
2017-Oct-11 22:53N 34°42' E 135°15'0 0.1
2017-Oct-11 22:29N 34°42' E 135°15'0 0.1
2017-Oct-11 21:59N 34°42' E 135°15'0 0.1
2017-Oct-11 21:29N 34°42' E 135°15'0 0.0
2017-Oct-11 20:53N 34°42' E 135°15'0 0.0
2017-Oct-11 20:29N 34°42' E 135°15'0 0.0
2017-Oct-11 19:59N 34°42' E 135°15'0 0.0
2017-Oct-11 19:29N 34°42' E 135°15'0 0.0
2017-Oct-11 18:53N 34°42' E 135°15'0 0.2
2017-Oct-11 18:29N 34°42' E 135°15'1 1.7
2017-Oct-11 18:00N 34°41' E 135°15'4 7.8
2017-Oct-11 17:30N 34°37' E 135°13'611.4
2017-Oct-11 16:57N 34°35' E 135°06'2 0.1
2017-Oct-10 16:13N 34°36' E 135°05'412.3
2017-Oct-10 15:55N 34°37' E 135°09'613.1
2017-Oct-10 15:29N 34°38' E 135°16'4 7.9
2017-Oct-10 14:59N 34°42' E 135°15'0 0.0
2017-Oct-10 13:59N 34°42' E 135°15'0 0.0
2017-Oct-10 13:17N 34°42' E 135°15'0 0.0
2017-Oct-10 12:59N 34°42' E 135°15'0 0.0
2017-Oct-10 12:29N 34°42' E 135°15'0 0.0
2017-Oct-10 11:59N 34°42' E 135°15'0 0.0
2017-Oct-10 11:23N 34°42' E 135°15'0 0.0
2017-Oct-10 10:59N 34°42' E 135°15'0 0.0
2017-Oct-10 10:29N 34°42' E 135°15'  
Track history (hours):
 
Tides and Currents Weather Stations Pressure Air Temp Water Temp Dewpoint Dewpoint Depression Visibility Wind Speed Wind Dir Waves Ship Positions

Koei Maru

Last reported at 2017-Oct-20 09:56 UTC. Time now 2017-Oct-20 17:44 UTC.
Position N 34°36' E 135°05'.

Length 74 m.

Type: Cargo ship. MMSI: 431003269.

Date/timePositionNaut miles runAvg speedWind from/ knotsBaromVisibWave heightAir tempDewpointWater temp
2017-Oct-20 09:56N 34°36' E 135°05'613.6
2017-Oct-20 09:30N 34°37' E 135°12'4 8.4
2017-Oct-20 09:00N 34°40' E 135°15'2 3.3
2017-Oct-20 08:29N 34°42' E 135°15'0 0.0
2017-Oct-20 07:59N 34°42' E 135°15'0 0.0
2017-Oct-20 07:29N 34°42' E 135°15'0 0.0
2017-Oct-20 06:59N 34°42' E 135°15'0 0.0
2017-Oct-20 06:23N 34°42' E 135°15'0 0.0
2017-Oct-20 05:59N 34°42' E 135°15'0 0.0
2017-Oct-20 05:29N 34°42' E 135°15'0 0.0
2017-Oct-20 04:59N 34°42' E 135°15'0 0.0
2017-Oct-20 04:29N 34°42' E 135°15'0 0.0
2017-Oct-20 03:59N 34°42' E 135°15'0 0.0
2017-Oct-20 03:29N 34°42' E 135°15'0 0.0
2017-Oct-20 02:59N 34°42' E 135°15'0 0.0
2017-Oct-20 02:29N 34°42' E 135°15'0 0.0
2017-Oct-20 01:59N 34°42' E 135°15'0 0.0
2017-Oct-20 01:29N 34°42' E 135°15'0 0.0
2017-Oct-20 00:59N 34°42' E 135°15'0 0.0
2017-Oct-20 00:17N 34°42' E 135°15'0 0.0
2017-Oct-19 23:59N 34°42' E 135°15'0 0.0
2017-Oct-19 23:29N 34°42' E 135°15'0 0.0
2017-Oct-19 22:53N 34°42' E 135°15'0 0.0
2017-Oct-19 22:29N 34°42' E 135°15'0 0.0
2017-Oct-19 21:59N 34°42' E 135°15'0 0.0
2017-Oct-19 21:29N 34°42' E 135°15'0 0.0
2017-Oct-19 20:53N 34°42' E 135°15'0 0.0
2017-Oct-19 20:29N 34°42' E 135°15'0 0.0
2017-Oct-19 19:59N 34°42' E 135°15'0 0.0
2017-Oct-19 19:23N 34°42' E 135°15'0 0.0
2017-Oct-19 18:59N 34°42' E 135°15'0 0.0
2017-Oct-19 18:29N 34°42' E 135°15'0 0.0
2017-Oct-19 17:59N 34°42' E 135°15'0 0.0
2017-Oct-19 17:05N 34°42' E 135°15'0 0.0
2017-Oct-19 16:59N 34°42' E 135°15'0 0.0
2017-Oct-19 16:29N 34°42' E 135°15'0 0.0
2017-Oct-19 15:59N 34°42' E 135°15'0 0.0
2017-Oct-19 15:29N 34°42' E 135°15'0 0.0
2017-Oct-19 14:59N 34°42' E 135°15'0 0.0
2017-Oct-19 14:23N 34°42' E 135°15'0 0.0
2017-Oct-19 13:59N 34°42' E 135°15'0 0.0
2017-Oct-19 13:29N 34°42' E 135°15'0 0.0
2017-Oct-19 12:59N 34°42' E 135°15'0 0.0
2017-Oct-19 12:29N 34°42' E 135°15'1 1.4
2017-Oct-19 12:00N 34°41' E 135°15'4 8.7
2017-Oct-19 11:30N 34°37' E 135°15'510.6
2017-Oct-19 10:59N 34°35' E 135°09'1 0.0
2017-Oct-18 00:48N 34°36' E 135°08'413.3
2017-Oct-18 00:28N 34°37' E 135°13'4 9.0
2017-Oct-17 23:58N 34°41' E 135°15'1 1.5
2017-Oct-17 23:30N 34°42' E 135°15'0 0.0
2017-Oct-17 23:00N 34°42' E 135°15'0 0.0
2017-Oct-17 22:30N 34°42' E 135°15'0 0.0
2017-Oct-17 22:00N 34°42' E 135°15'0 0.0
2017-Oct-17 21:30N 34°42' E 135°15'0 0.0
2017-Oct-17 21:00N 34°42' E 135°15'0 0.0
2017-Oct-17 20:30N 34°42' E 135°15'0 0.0
2017-Oct-17 20:00N 34°42' E 135°15'0 0.0
2017-Oct-17 19:30N 34°42' E 135°15'0 0.0
2017-Oct-17 19:00N 34°42' E 135°15'0 0.0
2017-Oct-17 18:24N 34°42' E 135°15'0 0.0
2017-Oct-17 18:00N 34°42' E 135°15'0 0.0
2017-Oct-17 17:30N 34°42' E 135°15'0 0.0
2017-Oct-17 17:00N 34°42' E 135°15'0 0.0
2017-Oct-17 16:30N 34°42' E 135°15'0 0.0
2017-Oct-17 16:00N 34°42' E 135°15'0 0.0
2017-Oct-17 15:12N 34°42' E 135°15'0 0.0
2017-Oct-17 15:00N 34°42' E 135°15'0 0.0
2017-Oct-17 14:30N 34°42' E 135°15'0 0.0
2017-Oct-17 13:54N 34°42' E 135°15'0 0.0
2017-Oct-17 13:30N 34°42' E 135°15'0 0.0
2017-Oct-17 12:54N 34°42' E 135°15'0 0.0
2017-Oct-17 12:30N 34°42' E 135°15'0 0.0
2017-Oct-17 12:00N 34°42' E 135°15'0 0.0
2017-Oct-17 11:30N 34°42' E 135°15'0 0.0
2017-Oct-17 10:48N 34°42' E 135°15'0 0.0
2017-Oct-17 10:30N 34°42' E 135°15'0 0.0
2017-Oct-17 10:00N 34°42' E 135°15'0 0.0
2017-Oct-17 09:30N 34°42' E 135°15'0 0.0
2017-Oct-17 08:54N 34°42' E 135°15'0 0.0
2017-Oct-17 08:24N 34°42' E 135°15'0 0.0
2017-Oct-17 08:00N 34°42' E 135°15'0 0.0
2017-Oct-17 07:30N 34°42' E 135°15'0 0.0
2017-Oct-17 07:00N 34°42' E 135°15'0 0.0
2017-Oct-17 06:30N 34°42' E 135°15'0 0.0
2017-Oct-17 06:00N 34°42' E 135°15'0 0.0
2017-Oct-17 05:30N 34°42' E 135°15'0 0.0
2017-Oct-17 04:48N 34°42' E 135°15'0 0.0
2017-Oct-17 04:30N 34°42' E 135°15'0 0.0
2017-Oct-17 03:48N 34°42' E 135°15'0 0.0
2017-Oct-17 03:06N 34°42' E 135°15'0 0.0
2017-Oct-17 03:00N 34°42' E 135°15'0 0.5
2017-Oct-17 02:28N 34°42' E 135°15'0 0.5
2017-Oct-17 01:57N 34°42' E 135°15'0 0.0
2017-Oct-17 01:27N 34°42' E 135°15'0 0.0
2017-Oct-17 00:45N 34°42' E 135°15'0 0.0
2017-Oct-17 00:27N 34°42' E 135°15'0 0.0
2017-Oct-16 23:57N 34°42' E 135°15'0 0.0
2017-Oct-16 23:27N 34°42' E 135°15'0 0.0
2017-Oct-16 22:57N 34°42' E 135°15'0 0.0
2017-Oct-16 22:27N 34°42' E 135°15'0 0.3
2017-Oct-16 22:00N 34°42' E 135°15'4 7.6
2017-Oct-16 21:30N 34°38' E 135°15'511.0
2017-Oct-16 21:00N 34°36' E 135°09'5 9.9
2017-Oct-16 20:30N 34°36' E 135°03'0 0.0
2017-Oct-15 16:36N 34°36' E 135°03'111.1
2017-Oct-15 16:28N 34°36' E 135°05'613.0
2017-Oct-15 16:00N 34°37' E 135°12'4 8.0
2017-Oct-15 15:30N 34°41' E 135°15'1 2.1
2017-Oct-15 14:57N 34°42' E 135°15'0 0.0
2017-Oct-15 13:57N 34°42' E 135°15'0 0.0
2017-Oct-15 13:27N 34°42' E 135°15'0 0.0
2017-Oct-15 12:57N 34°42' E 135°15'0 0.0
2017-Oct-15 12:27N 34°42' E 135°15'0 0.0
2017-Oct-15 11:51N 34°42' E 135°15'0 0.0
2017-Oct-15 11:21N 34°42' E 135°15'0 0.0
2017-Oct-15 10:57N 34°42' E 135°15'0 0.0
2017-Oct-15 10:27N 34°42' E 135°15'0 0.0
2017-Oct-15 09:57N 34°42' E 135°15'0 0.0
2017-Oct-15 09:27N 34°42' E 135°15'0 0.0
2017-Oct-15 08:45N 34°42' E 135°15'0 0.0
2017-Oct-15 08:27N 34°42' E 135°15'0 0.0
2017-Oct-15 07:57N 34°42' E 135°15'0 0.0
2017-Oct-15 07:21N 34°42' E 135°15'0 0.0
2017-Oct-15 06:57N 34°42' E 135°15'0 0.0
2017-Oct-15 06:27N 34°42' E 135°15'0 0.0
2017-Oct-15 05:57N 34°42' E 135°15'0 0.0
2017-Oct-15 05:27N 34°42' E 135°15'0 0.0
2017-Oct-15 04:57N 34°42' E 135°15'0 0.0
2017-Oct-15 04:27N 34°42' E 135°15'0 0.0
2017-Oct-15 03:57N 34°42' E 135°15'0 0.0
2017-Oct-15 03:21N 34°42' E 135°15'0 0.0
2017-Oct-15 02:57N 34°42' E 135°15'0 0.0
2017-Oct-15 02:27N 34°42' E 135°15'0 0.0
2017-Oct-15 01:57N 34°42' E 135°15'0 0.0
2017-Oct-15 01:21N 34°42' E 135°15'0 0.0
2017-Oct-15 00:57N 34°42' E 135°15'0 0.0
2017-Oct-15 00:27N 34°42' E 135°15'0 0.0
2017-Oct-14 23:57N 34°42' E 135°15'0 0.0
2017-Oct-14 23:27N 34°42' E 135°15'0 0.0
2017-Oct-14 22:51N 34°42' E 135°15'0 0.0
2017-Oct-14 22:21N 34°42' E 135°15'0 0.0
2017-Oct-14 21:57N 34°42' E 135°15'0 0.0
2017-Oct-14 21:27N 34°42' E 135°15'0 0.0
2017-Oct-14 20:57N 34°42' E 135°15'0 0.0
2017-Oct-14 20:27N 34°42' E 135°15'0 0.0
2017-Oct-14 19:57N 34°42' E 135°15'0 0.0
2017-Oct-14 19:09N 34°42' E 135°15'0 0.0
2017-Oct-14 18:57N 34°42' E 135°15'0 0.0
2017-Oct-14 18:27N 34°42' E 135°15'0 0.0
2017-Oct-14 17:57N 34°42' E 135°15'0 0.0
2017-Oct-14 17:21N 34°42' E 135°15'0 0.0
2017-Oct-14 16:57N 34°42' E 135°15'0 0.0
2017-Oct-14 16:21N 34°42' E 135°15'0 0.0
2017-Oct-14 15:57N 34°42' E 135°15'0 0.0
2017-Oct-14 15:21N 34°42' E 135°15'0 0.0
2017-Oct-14 14:57N 34°42' E 135°15'0 0.0
2017-Oct-14 14:21N 34°42' E 135°15'0 0.0
2017-Oct-14 13:57N 34°42' E 135°15'0 0.0
2017-Oct-14 13:27N 34°42' E 135°15'0 0.0
2017-Oct-14 12:57N 34°42' E 135°15'0 0.0
2017-Oct-14 12:27N 34°42' E 135°15'0 0.0
2017-Oct-14 11:57N 34°42' E 135°15'0 0.0
2017-Oct-14 11:21N 34°42' E 135°15'0 0.0
2017-Oct-14 10:57N 34°42' E 135°15'0 0.0
2017-Oct-14 10:27N 34°42' E 135°15'0 0.0
2017-Oct-14 09:57N 34°42' E 135°15'0 0.0
2017-Oct-14 09:27N 34°42' E 135°15'0 0.0
2017-Oct-14 08:57N 34°42' E 135°15'0 0.0
2017-Oct-14 08:27N 34°42' E 135°15'0 0.0
2017-Oct-14 07:57N 34°42' E 135°15'2 4.0
2017-Oct-14 07:30N 34°40' E 135°15'4 8.4
2017-Oct-14 07:00N 34°37' E 135°12'611.5
2017-Oct-14 06:30N 34°35' E 135°05'3 0.1
2017-Oct-13 05:26N 34°37' E 135°08'613.0
2017-Oct-13 05:00N 34°38' E 135°15'4 7.1
2017-Oct-13 04:25N 34°42' E 135°15'0 0.0
2017-Oct-13 03:55N 34°42' E 135°15'0 0.0
2017-Oct-13 03:25N 34°42' E 135°15'0 0.0
2017-Oct-13 02:55N 34°42' E 135°15'0 0.0
2017-Oct-13 02:19N 34°42' E 135°15'0 0.0
2017-Oct-13 01:55N 34°42' E 135°15'0 0.0
2017-Oct-13 01:25N 34°42' E 135°15'0 0.0
2017-Oct-13 00:55N 34°42' E 135°15'0 0.0
2017-Oct-13 00:25N 34°42' E 135°15'0 0.0
2017-Oct-12 23:55N 34°42' E 135°15'0 0.0
2017-Oct-12 23:25N 34°42' E 135°15'0 0.0
2017-Oct-12 22:49N 34°42' E 135°15'0 0.0
2017-Oct-12 22:25N 34°42' E 135°15'0 0.0
2017-Oct-12 21:55N 34°42' E 135°15'0 0.0
2017-Oct-12 21:25N 34°42' E 135°15'0 0.0
2017-Oct-12 20:55N 34°42' E 135°15'0 0.0
2017-Oct-12 20:25N 34°42' E 135°15'0 0.0
2017-Oct-12 19:49N 34°42' E 135°15'0 0.0
2017-Oct-12 19:07N 34°42' E 135°15'0 0.0
2017-Oct-12 18:55N 34°42' E 135°15'0 0.0
2017-Oct-12 18:19N 34°42' E 135°15'0 0.0
2017-Oct-12 17:49N 34°42' E 135°15'0 0.0
2017-Oct-12 17:25N 34°42' E 135°15'0 0.0
2017-Oct-12 16:55N 34°42' E 135°15'0 0.0
2017-Oct-12 16:25N 34°42' E 135°15'0 0.0
2017-Oct-12 15:55N 34°42' E 135°15'0 0.0
2017-Oct-12 15:13N 34°42' E 135°15'0 0.0
2017-Oct-12 14:55N 34°42' E 135°15'0 0.0
2017-Oct-12 14:25N 34°42' E 135°15'0 0.0
2017-Oct-12 13:55N 34°42' E 135°15'0 0.0
2017-Oct-12 13:25N 34°42' E 135°15'0 0.0
2017-Oct-12 12:55N 34°42' E 135°15'0 0.0
2017-Oct-12 12:25N 34°42' E 135°15'0 0.0
2017-Oct-12 11:55N 34°42' E 135°15'0 0.0
2017-Oct-12 11:19N 34°42' E 135°15'0 0.0
2017-Oct-12 10:55N 34°42' E 135°15'0 0.0
2017-Oct-12 10:25N 34°42' E 135°15'0 0.0
2017-Oct-12 09:49N 34°42' E 135°15'0 0.0
2017-Oct-12 09:19N 34°42' E 135°15'0 0.0
2017-Oct-12 08:55N 34°42' E 135°15'0 0.0
2017-Oct-12 08:25N 34°42' E 135°15'0 0.0
2017-Oct-12 07:49N 34°42' E 135°15'0 0.0
2017-Oct-12 07:25N 34°42' E 135°15'0 0.0
2017-Oct-12 06:49N 34°42' E 135°15'0 0.0
2017-Oct-12 06:13N 34°42' E 135°15'0 0.0
2017-Oct-12 05:55N 34°42' E 135°15'0 0.0
2017-Oct-12 05:07N 34°42' E 135°15'0 0.0
2017-Oct-12 04:55N 34°42' E 135°15'0 0.0
2017-Oct-12 04:19N 34°42' E 135°15'0 0.6
2017-Oct-12 03:57N 34°42' E 135°15'0 0.4
2017-Oct-12 03:23N 34°42' E 135°15'0 0.0
2017-Oct-12 02:59N 34°42' E 135°15'0 0.0
2017-Oct-12 02:29N 34°42' E 135°15'0 0.0
2017-Oct-12 01:59N 34°42' E 135°15'0 0.0
2017-Oct-12 01:29N 34°42' E 135°15'0 0.0
2017-Oct-12 00:59N 34°42' E 135°15'0 0.0
2017-Oct-12 00:29N 34°42' E 135°15'0 0.0
2017-Oct-11 23:59N 34°42' E 135°15'0 0.0
2017-Oct-11 23:29N 34°42' E 135°15'0 0.1
2017-Oct-11 22:53N 34°42' E 135°15'0 0.1
2017-Oct-11 22:29N 34°42' E 135°15'0 0.1
2017-Oct-11 21:59N 34°42' E 135°15'0 0.1
2017-Oct-11 21:29N 34°42' E 135°15'0 0.0
2017-Oct-11 20:53N 34°42' E 135°15'0 0.0
2017-Oct-11 20:29N 34°42' E 135°15'0 0.0
2017-Oct-11 19:59N 34°42' E 135°15'0 0.0
2017-Oct-11 19:29N 34°42' E 135°15'0 0.0
2017-Oct-11 18:53N 34°42' E 135°15'0 0.2
2017-Oct-11 18:29N 34°42' E 135°15'1 1.7
2017-Oct-11 18:00N 34°41' E 135°15'4 7.8
2017-Oct-11 17:30N 34°37' E 135°13'611.4
2017-Oct-11 16:57N 34°35' E 135°06'2 0.1
2017-Oct-10 16:13N 34°36' E 135°05'412.3
2017-Oct-10 15:55N 34°37' E 135°09'613.1
2017-Oct-10 15:29N 34°38' E 135°16'4 7.9
2017-Oct-10 14:59N 34°42' E 135°15'0 0.0
2017-Oct-10 13:59N 34°42' E 135°15'0 0.0
2017-Oct-10 13:17N 34°42' E 135°15'0 0.0
2017-Oct-10 12:59N 34°42' E 135°15'0 0.0
2017-Oct-10 12:29N 34°42' E 135°15'0 0.0
2017-Oct-10 11:59N 34°42' E 135°15'0 0.0
2017-Oct-10 11:23N 34°42' E 135°15'0 0.0
2017-Oct-10 10:59N 34°42' E 135°15'0 0.0
2017-Oct-10 10:29N 34°42' E 135°15'  

Dump ship's entire track history